createdAt,value
2017-12-27T00:00:41.273Z,982.56
2017-12-27T00:01:42.690Z,982.56
2017-12-27T00:02:44.104Z,982.55
2017-12-27T00:03:45.513Z,982.56
2017-12-27T00:04:46.923Z,982.51
2017-12-27T00:05:48.340Z,982.42
2017-12-27T00:06:49.757Z,982.46
2017-12-27T00:07:51.162Z,982.44
2017-12-27T00:08:52.582Z,982.30
2017-12-27T00:09:53.983Z,982.34
2017-12-27T00:10:55.394Z,982.30
2017-12-27T00:11:56.801Z,982.23
2017-12-27T00:12:58.210Z,982.18
2017-12-27T00:13:59.662Z,982.15
2017-12-27T00:15:01.087Z,982.05
2017-12-27T00:16:02.496Z,982.07
2017-12-27T00:17:03.906Z,982.04
2017-12-27T00:18:05.321Z,982.00
2017-12-27T00:19:06.731Z,981.97
2017-12-27T00:20:08.144Z,981.94
2017-12-27T00:21:09.569Z,981.94
2017-12-27T00:22:10.984Z,981.93
2017-12-27T00:23:12.389Z,981.95
2017-12-27T00:24:13.798Z,981.98
2017-12-27T00:25:15.215Z,981.96
2017-12-27T00:26:16.631Z,981.89
2017-12-27T00:27:18.140Z,981.83
2017-12-27T00:28:19.558Z,981.80
2017-12-27T00:29:20.966Z,981.73
2017-12-27T00:30:22.372Z,981.75
2017-12-27T00:31:23.795Z,981.67
2017-12-27T00:32:25.209Z,981.65
2017-12-27T00:33:26.621Z,981.56
2017-12-27T00:34:28.029Z,981.48
2017-12-27T00:35:29.435Z,981.46
2017-12-27T00:36:30.841Z,981.42
2017-12-27T00:37:32.242Z,981.44
2017-12-27T00:38:33.673Z,981.39
2017-12-27T00:39:35.089Z,981.38
2017-12-27T00:40:36.513Z,981.35
2017-12-27T00:41:37.915Z,981.29
2017-12-27T00:42:39.324Z,981.30
2017-12-27T00:43:40.740Z,981.23
2017-12-27T00:44:42.142Z,981.19
2017-12-27T00:45:43.557Z,981.21
2017-12-27T00:46:45.038Z,981.19
2017-12-27T00:47:46.449Z,981.19
2017-12-27T00:48:47.854Z,981.20
2017-12-27T00:49:49.264Z,981.13
2017-12-27T00:50:50.679Z,981.15
2017-12-27T00:51:52.083Z,981.12
2017-12-27T00:52:53.501Z,981.12
2017-12-27T00:53:54.903Z,981.12
2017-12-27T00:54:56.323Z,981.04
2017-12-27T00:55:57.730Z,981.09
2017-12-27T00:56:59.145Z,981.02
2017-12-27T00:58:00.560Z,981.07
2017-12-27T00:59:01.979Z,981.06
2017-12-27T01:00:03.396Z,981.06
2017-12-27T01:01:04.797Z,980.98
2017-12-27T01:02:06.211Z,981.03
2017-12-27T01:03:07.614Z,980.95
2017-12-27T01:04:09.040Z,980.99
2017-12-27T01:05:10.447Z,980.96
2017-12-27T01:06:11.855Z,980.93
2017-12-27T01:07:13.281Z,980.90
2017-12-27T01:08:14.686Z,980.84
2017-12-27T01:09:16.140Z,980.79
2017-12-27T01:10:17.521Z,980.80
2017-12-27T01:11:18.935Z,980.84
2017-12-27T01:12:20.341Z,980.75
2017-12-27T01:13:21.752Z,980.76
2017-12-27T01:14:23.163Z,980.82
2017-12-27T01:15:24.569Z,980.84
2017-12-27T01:16:25.981Z,980.75
2017-12-27T01:17:27.397Z,980.74
2017-12-27T01:18:28.810Z,980.76
2017-12-27T01:19:30.226Z,980.74
2017-12-27T01:20:31.637Z,980.76
2017-12-27T01:21:33.042Z,980.75
2017-12-27T01:22:34.444Z,980.76
2017-12-27T01:23:35.851Z,980.65
2017-12-27T01:24:37.261Z,980.67
2017-12-27T01:25:38.664Z,980.58
2017-12-27T01:26:40.068Z,980.58
2017-12-27T01:27:41.478Z,980.55
2017-12-27T01:28:42.878Z,980.54
2017-12-27T01:29:44.284Z,980.53
2017-12-27T01:30:45.690Z,980.53
2017-12-27T01:31:47.116Z,980.43
2017-12-27T01:32:48.520Z,980.40
2017-12-27T01:33:49.933Z,980.31
2017-12-27T01:34:51.344Z,980.30
2017-12-27T01:35:52.831Z,980.25
2017-12-27T01:36:54.238Z,980.24
2017-12-27T01:37:55.650Z,980.18
2017-12-27T01:38:57.058Z,980.19
2017-12-27T01:39:58.464Z,980.20
2017-12-27T01:40:59.868Z,980.15
2017-12-27T01:42:01.285Z,980.10
2017-12-27T01:43:02.697Z,980.04
2017-12-27T01:44:04.107Z,980.02
2017-12-27T01:45:05.523Z,979.99
2017-12-27T01:46:06.944Z,979.88
2017-12-27T01:47:08.346Z,979.89
2017-12-27T01:48:09.755Z,979.84
2017-12-27T01:49:11.168Z,979.86
2017-12-27T01:50:12.573Z,979.86
2017-12-27T01:51:13.979Z,979.93
2017-12-27T01:52:15.385Z,979.81
2017-12-27T01:53:16.803Z,979.81
2017-12-27T01:54:18.226Z,979.74
2017-12-27T01:55:19.699Z,979.73
2017-12-27T01:56:21.120Z,979.72
2017-12-27T01:57:22.526Z,979.60
2017-12-27T01:58:23.926Z,979.68
2017-12-27T01:59:25.339Z,979.63
2017-12-27T02:00:26.748Z,979.59
2017-12-27T02:01:28.165Z,979.58
2017-12-27T02:02:29.585Z,979.57
2017-12-27T02:03:31.001Z,979.55
2017-12-27T02:04:32.399Z,979.54
2017-12-27T02:05:33.807Z,979.53
2017-12-27T02:06:35.225Z,979.50
2017-12-27T02:07:36.644Z,979.42
2017-12-27T02:08:38.047Z,979.39
2017-12-27T02:09:39.457Z,979.31
2017-12-27T02:10:40.868Z,979.32
2017-12-27T02:11:42.274Z,979.29
2017-12-27T02:12:43.683Z,979.24
2017-12-27T02:13:45.097Z,979.22
2017-12-27T02:14:46.508Z,979.17
2017-12-27T02:15:47.919Z,979.17
2017-12-27T02:16:49.339Z,979.13
2017-12-27T02:17:50.751Z,979.07
2017-12-27T02:18:52.154Z,979.10
2017-12-27T02:19:53.570Z,979.03
2017-12-27T02:20:54.976Z,978.99
2017-12-27T02:21:56.388Z,979.01
2017-12-27T02:22:57.786Z,979.02
2017-12-27T02:23:59.199Z,979.02
2017-12-27T02:25:00.614Z,979.02
2017-12-27T02:26:02.026Z,979.01
2017-12-27T02:27:03.435Z,978.94
2017-12-27T02:28:04.847Z,978.88
2017-12-27T02:29:06.257Z,978.93
2017-12-27T02:30:07.661Z,978.83
2017-12-27T02:31:09.078Z,978.82
2017-12-27T02:32:10.491Z,978.73
2017-12-27T02:33:11.896Z,978.75
2017-12-27T02:34:13.309Z,978.80
2017-12-27T02:35:14.717Z,978.71
2017-12-27T02:36:16.124Z,978.66
2017-12-27T02:37:17.536Z,978.66
2017-12-27T02:38:18.944Z,978.64
2017-12-27T02:39:20.458Z,978.63
2017-12-27T02:40:21.870Z,978.65
2017-12-27T02:41:23.275Z,978.62
2017-12-27T02:42:24.679Z,978.63
2017-12-27T02:43:26.097Z,978.58
2017-12-27T02:44:27.497Z,978.53
2017-12-27T02:45:28.926Z,978.55
2017-12-27T02:46:30.341Z,978.49
2017-12-27T02:47:31.745Z,978.48
2017-12-27T02:48:33.154Z,978.34
2017-12-27T02:49:34.564Z,978.39
2017-12-27T02:50:35.971Z,978.36
2017-12-27T02:51:37.379Z,978.40
2017-12-27T02:52:38.787Z,978.30
2017-12-27T02:53:40.193Z,978.26
2017-12-27T02:54:41.601Z,978.29
2017-12-27T02:55:43.020Z,978.25
2017-12-27T02:56:44.477Z,978.23
2017-12-27T02:57:45.838Z,978.19
2017-12-27T02:58:47.250Z,978.12
2017-12-27T02:59:48.662Z,978.13
2017-12-27T03:00:50.068Z,978.08
2017-12-27T03:01:51.504Z,978.15
2017-12-27T03:02:52.913Z,978.07
2017-12-27T03:03:54.323Z,978.00
2017-12-27T03:04:55.727Z,978.05
2017-12-27T03:05:57.136Z,977.91
2017-12-27T03:06:58.546Z,977.93
2017-12-27T03:07:59.974Z,977.86
2017-12-27T03:09:01.379Z,977.87
2017-12-27T03:10:02.835Z,977.94
2017-12-27T03:11:04.242Z,977.75
2017-12-27T03:12:05.653Z,977.83
2017-12-27T03:13:07.057Z,977.77
2017-12-27T03:14:08.461Z,977.73
2017-12-27T03:15:09.878Z,977.75
2017-12-27T03:16:11.284Z,977.65
2017-12-27T03:17:12.699Z,977.62
2017-12-27T03:18:14.114Z,977.60
2017-12-27T03:19:15.539Z,977.51
2017-12-27T03:20:16.956Z,977.58
2017-12-27T03:21:18.367Z,977.51
2017-12-27T03:22:19.774Z,977.48
2017-12-27T03:23:21.186Z,977.52
2017-12-27T03:24:22.595Z,977.50
2017-12-27T03:25:24.014Z,977.52
2017-12-27T03:26:25.418Z,977.49
2017-12-27T03:27:26.827Z,977.43
2017-12-27T03:28:28.247Z,977.45
2017-12-27T03:29:29.655Z,977.53
2017-12-27T03:30:31.053Z,977.50
2017-12-27T03:31:32.468Z,977.33
2017-12-27T03:32:33.876Z,977.31
2017-12-27T03:33:35.284Z,977.21
2017-12-27T03:34:36.691Z,977.09
2017-12-27T03:35:38.097Z,977.19
2017-12-27T03:36:39.503Z,977.15
2017-12-27T03:37:40.916Z,977.17
2017-12-27T03:38:42.322Z,977.14
2017-12-27T03:39:43.742Z,977.09
2017-12-27T03:40:45.158Z,977.07
2017-12-27T03:41:46.567Z,977.12
2017-12-27T03:42:47.973Z,977.13
2017-12-27T03:43:49.386Z,977.10
2017-12-27T03:44:50.794Z,977.11
2017-12-27T03:45:52.204Z,977.08
2017-12-27T03:46:53.605Z,977.09
2017-12-27T03:47:55.020Z,977.09
2017-12-27T03:48:56.435Z,977.08
2017-12-27T03:49:57.842Z,977.04
2017-12-27T03:50:59.269Z,977.03
2017-12-27T03:52:00.684Z,977.01
2017-12-27T03:53:02.092Z,977.01
2017-12-27T03:54:03.493Z,976.98
2017-12-27T03:55:04.911Z,976.95
2017-12-27T03:56:06.318Z,976.92
2017-12-27T03:57:07.724Z,976.91
2017-12-27T03:58:09.136Z,976.88
2017-12-27T03:59:10.542Z,976.91
2017-12-27T04:00:11.951Z,976.90
2017-12-27T04:01:13.368Z,976.80
2017-12-27T04:02:14.776Z,976.81
2017-12-27T04:03:16.183Z,976.75
2017-12-27T04:04:17.600Z,976.80
2017-12-27T04:05:19.009Z,976.72
2017-12-27T04:06:20.417Z,976.74
2017-12-27T04:07:21.829Z,976.69
2017-12-27T04:08:23.244Z,976.65
2017-12-27T04:09:24.652Z,976.59
2017-12-27T04:10:26.066Z,976.61
2017-12-27T04:11:27.475Z,976.51
2017-12-27T04:12:28.885Z,976.50
2017-12-27T04:13:30.299Z,976.41
2017-12-27T04:14:31.706Z,976.36
2017-12-27T04:15:33.114Z,976.35
2017-12-27T04:16:34.528Z,976.23
2017-12-27T04:17:35.935Z,976.20
2017-12-27T04:18:37.345Z,976.20
2017-12-27T04:19:38.758Z,976.17
2017-12-27T04:20:40.162Z,976.12
2017-12-27T04:21:41.564Z,976.07
2017-12-27T04:22:42.977Z,976.07
2017-12-27T04:23:44.425Z,976.00
2017-12-27T04:24:45.833Z,976.02
2017-12-27T04:25:47.241Z,975.98
2017-12-27T04:26:48.651Z,975.92
2017-12-27T04:27:50.057Z,975.94
2017-12-27T04:28:51.467Z,975.88
2017-12-27T04:29:52.873Z,975.88
2017-12-27T04:30:54.410Z,975.88
2017-12-27T04:31:55.825Z,975.89
2017-12-27T04:32:57.232Z,975.86
2017-12-27T04:33:58.636Z,975.90
2017-12-27T04:35:00.047Z,975.93
2017-12-27T04:36:01.471Z,975.80
2017-12-27T04:37:02.876Z,975.74
2017-12-27T04:38:04.296Z,975.80
2017-12-27T04:39:05.709Z,975.75
2017-12-27T04:40:07.113Z,975.76
2017-12-27T04:41:08.523Z,975.76
2017-12-27T04:42:09.934Z,975.80
2017-12-27T04:43:11.347Z,975.79
2017-12-27T04:44:12.758Z,975.71
2017-12-27T04:45:14.165Z,975.67
2017-12-27T04:46:15.575Z,975.61
2017-12-27T04:47:16.991Z,975.68
2017-12-27T04:48:18.405Z,975.58
2017-12-27T04:49:19.809Z,975.54
2017-12-27T04:50:21.225Z,975.58
2017-12-27T04:51:22.632Z,975.53
2017-12-27T04:52:24.048Z,975.53
2017-12-27T04:53:25.457Z,975.52
2017-12-27T04:54:26.871Z,975.50
2017-12-27T04:55:28.275Z,975.59
2017-12-27T04:56:29.683Z,975.46
2017-12-27T04:57:31.092Z,975.47
2017-12-27T04:58:32.510Z,975.38
2017-12-27T04:59:35.102Z,975.35
2017-12-27T05:00:36.506Z,975.27
2017-12-27T05:01:37.915Z,975.33
2017-12-27T05:02:39.325Z,975.26
2017-12-27T05:03:40.742Z,975.24
2017-12-27T05:04:42.159Z,975.29
2017-12-27T05:05:43.576Z,975.23
2017-12-27T05:06:44.980Z,975.16
2017-12-27T05:07:46.396Z,975.09
2017-12-27T05:08:47.807Z,975.18
2017-12-27T05:09:49.220Z,975.16
2017-12-27T05:10:50.635Z,975.23
2017-12-27T05:11:52.050Z,975.12
2017-12-27T05:12:53.464Z,975.11
2017-12-27T05:13:54.870Z,975.15
2017-12-27T05:14:56.278Z,975.12
2017-12-27T05:15:57.692Z,975.16
2017-12-27T05:16:59.105Z,975.12
2017-12-27T05:18:00.525Z,975.09
2017-12-27T05:19:01.920Z,975.11
2017-12-27T05:20:03.339Z,975.12
2017-12-27T05:21:04.749Z,975.14
2017-12-27T05:22:06.158Z,975.10
2017-12-27T05:23:07.576Z,974.97
2017-12-27T05:24:08.987Z,975.07
2017-12-27T05:25:10.398Z,975.04
2017-12-27T05:26:11.812Z,975.05
2017-12-27T05:27:13.256Z,975.03
2017-12-27T05:28:14.747Z,975.01
2017-12-27T05:29:16.157Z,974.96
2017-12-27T05:30:17.568Z,974.92
2017-12-27T05:31:18.982Z,974.92
2017-12-27T05:32:20.391Z,974.87
2017-12-27T05:33:22.471Z,974.90
2017-12-27T05:34:23.889Z,974.82
2017-12-27T05:35:25.301Z,974.96
2017-12-27T05:36:27.423Z,974.87
2017-12-27T05:37:28.931Z,975.00
2017-12-27T05:38:30.007Z,974.81
2017-12-27T05:39:32.140Z,974.93
2017-12-27T05:40:33.562Z,974.83
2017-12-27T05:41:34.974Z,974.89
2017-12-27T05:42:36.390Z,974.84
2017-12-27T05:43:38.442Z,974.84
2017-12-27T05:44:39.936Z,974.83
2017-12-27T05:45:42.111Z,974.83
2017-12-27T05:46:43.528Z,974.76
2017-12-27T05:47:44.960Z,974.73
2017-12-27T05:48:46.355Z,974.73
2017-12-27T05:49:48.546Z,974.75
2017-12-27T05:50:50.051Z,974.79
2017-12-27T05:51:51.122Z,974.73
2017-12-27T05:52:53.382Z,974.73
2017-12-27T05:53:55.550Z,974.71
2017-12-27T05:54:56.167Z,974.66
2017-12-27T05:55:57.584Z,974.66
2017-12-27T05:56:59.546Z,974.74
2017-12-27T05:58:01.174Z,974.72
2017-12-27T05:59:03.256Z,974.81
2017-12-27T06:00:04.674Z,974.76
2017-12-27T06:01:06.091Z,974.71
2017-12-27T06:02:08.218Z,974.68
2017-12-27T06:03:09.638Z,974.67
2017-12-27T06:04:11.052Z,974.78
2017-12-27T06:05:12.456Z,974.69
2017-12-27T06:06:13.865Z,974.55
2017-12-27T06:07:16.307Z,974.64
2017-12-27T06:08:17.728Z,974.56
2017-12-27T06:09:19.132Z,974.61
2017-12-27T06:10:20.546Z,974.58
2017-12-27T06:11:21.969Z,974.51
2017-12-27T06:12:23.377Z,974.53
2017-12-27T06:13:24.875Z,974.58
2017-12-27T06:14:26.288Z,974.49
2017-12-27T06:15:27.704Z,974.52
2017-12-27T06:16:29.677Z,974.51
2017-12-27T06:17:31.765Z,974.50
2017-12-27T06:18:34.019Z,974.41
2017-12-27T06:19:35.430Z,974.40
2017-12-27T06:20:36.837Z,974.39
2017-12-27T06:21:38.253Z,974.35
2017-12-27T06:22:39.661Z,974.27
2017-12-27T06:23:41.070Z,974.27
2017-12-27T06:24:42.485Z,974.27
2017-12-27T06:25:43.897Z,974.24
2017-12-27T06:26:45.360Z,974.19
2017-12-27T06:27:46.770Z,974.09
2017-12-27T06:28:48.189Z,974.12
2017-12-27T06:29:49.602Z,974.09
2017-12-27T06:30:51.650Z,974.11
2017-12-27T06:31:53.768Z,974.04
2017-12-27T06:32:55.182Z,974.03
2017-12-27T06:33:56.592Z,973.97
2017-12-27T06:34:58.010Z,973.96
2017-12-27T06:35:59.426Z,974.02
2017-12-27T06:37:00.843Z,973.97
2017-12-27T06:38:03.086Z,973.90
2017-12-27T06:39:03.613Z,973.96
2017-12-27T06:40:05.587Z,973.98
2017-12-27T06:41:07.200Z,973.92
2017-12-27T06:42:09.470Z,973.92
2017-12-27T06:43:10.877Z,973.87
2017-12-27T06:44:12.288Z,973.84
2017-12-27T06:45:13.693Z,973.79
2017-12-27T06:46:15.104Z,973.85
2017-12-27T06:47:17.162Z,973.83
2017-12-27T06:48:18.582Z,973.78
2017-12-27T06:49:19.987Z,973.77
2017-12-27T06:50:21.403Z,973.77
2017-12-27T06:51:22.815Z,973.81
2017-12-27T06:52:24.229Z,973.77
2017-12-27T06:53:25.648Z,973.84
2017-12-27T06:54:27.062Z,973.80
2017-12-27T06:55:28.474Z,973.74
2017-12-27T06:56:29.888Z,973.76
2017-12-27T06:57:31.301Z,973.73
2017-12-27T06:58:52.942Z,973.75
2017-12-27T06:59:54.377Z,973.67
2017-12-27T07:00:55.757Z,973.63
2017-12-27T07:01:57.158Z,973.81
2017-12-27T07:02:58.567Z,973.69
2017-12-27T07:03:59.976Z,973.76
2017-12-27T07:05:01.386Z,973.67
2017-12-27T07:06:02.826Z,973.68
2017-12-27T07:07:04.239Z,973.70
2017-12-27T07:08:05.648Z,973.71
2017-12-27T07:09:07.072Z,973.69
2017-12-27T07:10:08.483Z,973.67
2017-12-27T07:11:09.893Z,973.69
2017-12-27T07:12:11.311Z,973.69
2017-12-27T07:13:12.724Z,973.66
2017-12-27T07:14:14.126Z,973.72
2017-12-27T07:15:15.539Z,973.70
2017-12-27T07:16:16.958Z,973.74
2017-12-27T07:17:18.364Z,973.71
2017-12-27T07:18:19.777Z,973.68
2017-12-27T07:19:21.179Z,973.67
2017-12-27T07:20:22.610Z,973.64
2017-12-27T07:21:24.027Z,973.60
2017-12-27T07:22:25.424Z,973.57
2017-12-27T07:23:26.838Z,973.57
2017-12-27T07:24:28.250Z,973.58
2017-12-27T07:25:29.650Z,973.69
2017-12-27T07:26:31.073Z,973.59
2017-12-27T07:27:32.481Z,973.62
2017-12-27T07:28:33.898Z,973.58
2017-12-27T07:29:35.294Z,973.56
2017-12-27T07:30:36.705Z,973.58
2017-12-27T07:31:38.114Z,973.58
2017-12-27T07:32:39.526Z,973.57
2017-12-27T07:33:40.957Z,973.56
2017-12-27T07:34:42.370Z,973.46
2017-12-27T07:35:43.778Z,973.54
2017-12-27T07:36:45.198Z,973.52
2017-12-27T07:37:46.618Z,973.39
2017-12-27T07:38:48.024Z,973.49
2017-12-27T07:39:49.429Z,973.52
2017-12-27T07:40:50.837Z,973.60
2017-12-27T07:41:52.246Z,973.45
2017-12-27T07:42:53.654Z,973.47
2017-12-27T07:43:55.066Z,973.57
2017-12-27T07:44:56.480Z,973.51
2017-12-27T07:45:57.897Z,973.51
2017-12-27T07:46:59.299Z,973.56
2017-12-27T07:48:00.715Z,973.47
2017-12-27T07:49:02.186Z,973.46
2017-12-27T07:50:03.596Z,973.41
2017-12-27T07:51:05.006Z,973.43
2017-12-27T07:52:06.414Z,973.43
2017-12-27T07:53:07.828Z,973.43
2017-12-27T07:54:09.239Z,973.43
2017-12-27T07:55:10.640Z,973.41
2017-12-27T07:56:12.051Z,973.37
2017-12-27T07:57:13.471Z,973.34
2017-12-27T07:58:14.880Z,973.39
2017-12-27T07:59:16.291Z,973.46
2017-12-27T08:00:17.704Z,973.36
2017-12-27T08:01:19.175Z,973.30
2017-12-27T08:02:20.599Z,973.25
2017-12-27T08:03:21.999Z,973.33
2017-12-27T08:04:23.410Z,973.32
2017-12-27T08:05:24.814Z,973.34
2017-12-27T08:06:26.237Z,973.30
2017-12-27T08:07:27.658Z,973.25
2017-12-27T08:08:29.078Z,973.26
2017-12-27T08:09:30.490Z,973.31
2017-12-27T08:10:31.905Z,973.28
2017-12-27T08:11:33.312Z,973.16
2017-12-27T08:12:34.727Z,973.22
2017-12-27T08:13:36.139Z,973.22
2017-12-27T08:14:37.562Z,973.17
2017-12-27T08:15:38.966Z,973.13
2017-12-27T08:16:40.382Z,973.20
2017-12-27T08:17:41.799Z,973.09
2017-12-27T08:18:43.224Z,973.12
2017-12-27T08:19:44.631Z,973.14
2017-12-27T08:20:46.039Z,973.15
2017-12-27T08:21:47.456Z,973.10
2017-12-27T08:22:48.884Z,973.13
2017-12-27T08:23:50.280Z,973.24
2017-12-27T08:24:51.692Z,973.10
2017-12-27T08:25:53.101Z,973.17
2017-12-27T08:26:54.519Z,973.10
2017-12-27T08:27:55.933Z,973.16
2017-12-27T08:28:57.349Z,973.12
2017-12-27T08:29:58.766Z,973.12
2017-12-27T08:31:00.181Z,973.17
2017-12-27T08:32:01.597Z,973.13
2017-12-27T08:33:03.008Z,973.19
2017-12-27T08:34:04.421Z,973.23
2017-12-27T08:35:05.829Z,973.13
2017-12-27T08:36:07.234Z,973.12
2017-12-27T08:37:08.646Z,973.14
2017-12-27T08:38:10.060Z,973.08
2017-12-27T08:39:11.483Z,973.11
2017-12-27T08:40:12.890Z,973.11
2017-12-27T08:41:14.306Z,973.08
2017-12-27T08:42:15.720Z,973.13
2017-12-27T08:43:17.141Z,973.04
2017-12-27T08:44:18.545Z,973.07
2017-12-27T08:45:19.971Z,973.10
2017-12-27T08:46:21.377Z,973.10
2017-12-27T08:47:22.814Z,973.10
2017-12-27T08:48:24.200Z,973.09
2017-12-27T08:49:25.611Z,973.09
2017-12-27T08:50:27.026Z,973.17
2017-12-27T08:51:28.435Z,973.07
2017-12-27T08:52:29.847Z,973.06
2017-12-27T08:53:31.260Z,973.07
2017-12-27T08:54:32.676Z,973.12
2017-12-27T08:55:34.089Z,973.04
2017-12-27T08:56:35.496Z,973.11
2017-12-27T08:57:36.985Z,973.08
2017-12-27T08:58:38.398Z,973.03
2017-12-27T08:59:39.810Z,973.02
2017-12-27T09:00:41.219Z,973.04
2017-12-27T09:01:42.635Z,973.01
2017-12-27T09:02:44.052Z,973.09
2017-12-27T09:03:45.460Z,973.07
2017-12-27T09:04:46.869Z,973.11
2017-12-27T09:05:48.283Z,973.04
2017-12-27T09:06:49.693Z,973.08
2017-12-27T09:07:51.103Z,973.03
2017-12-27T09:08:52.520Z,973.06
2017-12-27T09:09:53.935Z,973.00
2017-12-27T09:10:55.353Z,973.00
2017-12-27T09:11:56.757Z,973.00
2017-12-27T09:12:58.163Z,972.87
2017-12-27T09:13:59.580Z,972.96
2017-12-27T09:15:00.989Z,972.86
2017-12-27T09:16:02.413Z,972.91
2017-12-27T09:17:03.838Z,972.88
2017-12-27T09:18:05.249Z,972.87
2017-12-27T09:19:06.667Z,972.87
2017-12-27T09:20:08.084Z,972.90
2017-12-27T09:21:09.500Z,972.84
2017-12-27T09:22:10.899Z,972.88
2017-12-27T09:23:12.318Z,972.89
2017-12-27T09:24:13.727Z,972.96
2017-12-27T09:25:15.137Z,972.92
2017-12-27T09:26:16.560Z,972.84
2017-12-27T09:27:17.974Z,972.89
2017-12-27T09:28:19.387Z,972.86
2017-12-27T09:29:20.805Z,972.88
2017-12-27T09:30:22.217Z,972.92
2017-12-27T09:31:23.633Z,972.89
2017-12-27T09:32:25.056Z,972.90
2017-12-27T09:33:26.491Z,972.93
2017-12-27T09:34:27.915Z,972.94
2017-12-27T09:35:29.317Z,972.92
2017-12-27T09:36:30.726Z,972.89
2017-12-27T09:37:32.147Z,972.86
2017-12-27T09:38:33.560Z,972.93
2017-12-27T09:39:34.982Z,972.90
2017-12-27T09:40:36.387Z,972.89
2017-12-27T09:41:37.807Z,972.92
2017-12-27T09:42:39.239Z,972.97
2017-12-27T09:43:40.660Z,972.94
2017-12-27T09:44:42.070Z,972.89
2017-12-27T09:45:43.479Z,972.92
2017-12-27T09:46:44.898Z,972.96
2017-12-27T09:47:46.307Z,972.95
2017-12-27T09:48:47.731Z,972.92
2017-12-27T09:49:49.137Z,972.93
2017-12-27T09:50:50.562Z,972.95
2017-12-27T09:51:51.967Z,972.92
2017-12-27T09:52:53.380Z,972.97
2017-12-27T09:53:54.794Z,973.00
2017-12-27T09:54:56.202Z,972.95
2017-12-27T09:55:57.629Z,972.93
2017-12-27T09:56:59.038Z,973.00
2017-12-27T09:58:00.460Z,973.07
2017-12-27T09:59:01.877Z,972.98
2017-12-27T10:00:03.295Z,973.01
2017-12-27T10:01:04.718Z,972.96
2017-12-27T10:02:06.127Z,972.99
2017-12-27T10:03:07.540Z,972.99
2017-12-27T10:04:08.957Z,972.99
2017-12-27T10:05:10.372Z,972.98
2017-12-27T10:06:11.788Z,972.93
2017-12-27T10:07:13.200Z,972.97
2017-12-27T10:08:14.624Z,972.99
2017-12-27T10:09:16.025Z,972.98
2017-12-27T10:10:17.441Z,972.99
2017-12-27T10:11:18.852Z,972.95
2017-12-27T10:12:20.263Z,972.94
2017-12-27T10:13:21.676Z,972.95
2017-12-27T10:14:23.102Z,972.86
2017-12-27T10:15:24.498Z,972.92
2017-12-27T10:16:25.912Z,972.94
2017-12-27T10:17:27.327Z,972.93
2017-12-27T10:18:28.738Z,972.95
2017-12-27T10:19:30.155Z,972.93
2017-12-27T10:20:31.608Z,972.88
2017-12-27T10:21:33.020Z,972.86
2017-12-27T10:22:34.447Z,972.74
2017-12-27T10:23:35.852Z,972.77
2017-12-27T10:24:37.257Z,972.85
2017-12-27T10:25:38.680Z,972.77
2017-12-27T10:26:40.124Z,972.81
2017-12-27T10:27:41.529Z,972.81
2017-12-27T10:28:42.951Z,972.79
2017-12-27T10:29:44.356Z,972.80
2017-12-27T10:30:45.783Z,972.75
2017-12-27T10:31:47.200Z,972.76
2017-12-27T10:32:48.653Z,972.73
2017-12-27T10:33:50.063Z,972.70
2017-12-27T10:34:51.472Z,972.66
2017-12-27T10:35:52.882Z,972.69
2017-12-27T10:36:54.298Z,972.70
2017-12-27T10:37:55.716Z,972.67
2017-12-27T10:38:57.185Z,972.64
2017-12-27T10:39:58.596Z,972.66
2017-12-27T10:41:00.013Z,972.59
2017-12-27T10:42:01.417Z,972.57
2017-12-27T10:43:02.831Z,972.58
2017-12-27T10:44:04.244Z,972.49
2017-12-27T10:45:05.661Z,972.51
2017-12-27T10:46:07.074Z,972.55
2017-12-27T10:47:08.490Z,972.59
2017-12-27T10:48:09.912Z,972.53
2017-12-27T10:49:11.323Z,972.45
2017-12-27T10:50:12.729Z,972.43
2017-12-27T10:51:14.140Z,972.43
2017-12-27T10:52:15.548Z,972.43
2017-12-27T10:53:16.967Z,972.37
2017-12-27T10:54:18.376Z,972.40
2017-12-27T10:55:19.791Z,972.40
2017-12-27T10:56:21.201Z,972.35
2017-12-27T10:57:22.612Z,972.35
2017-12-27T10:58:24.021Z,972.34
2017-12-27T10:59:25.440Z,972.37
2017-12-27T11:00:26.851Z,972.35
2017-12-27T11:01:28.275Z,972.36
2017-12-27T11:02:29.696Z,972.33
2017-12-27T11:03:31.112Z,972.30
2017-12-27T11:04:32.520Z,972.31
2017-12-27T11:05:33.932Z,972.25
2017-12-27T11:06:35.352Z,972.29
2017-12-27T11:07:36.773Z,972.27
2017-12-27T11:08:38.192Z,972.23
2017-12-27T11:09:39.608Z,972.23
2017-12-27T11:10:41.030Z,972.24
2017-12-27T11:11:42.452Z,972.18
2017-12-27T11:12:43.864Z,972.27
2017-12-27T11:13:45.282Z,972.12
2017-12-27T11:14:46.701Z,972.18
2017-12-27T11:15:48.112Z,972.18
2017-12-27T11:16:49.527Z,972.22
2017-12-27T11:17:50.941Z,972.17
2017-12-27T11:18:52.374Z,972.19
2017-12-27T11:19:53.794Z,972.18
2017-12-27T11:20:55.207Z,972.19
2017-12-27T11:21:56.621Z,972.30
2017-12-27T11:22:58.039Z,972.30
2017-12-27T11:23:59.460Z,972.33
2017-12-27T11:25:00.872Z,972.34
2017-12-27T11:26:02.291Z,972.37
2017-12-27T11:27:03.698Z,972.35
2017-12-27T11:28:05.111Z,972.34
2017-12-27T11:29:06.530Z,972.26
2017-12-27T11:30:07.941Z,972.35
2017-12-27T11:31:09.355Z,972.31
2017-12-27T11:32:10.759Z,972.43
2017-12-27T11:33:12.175Z,972.30
2017-12-27T11:34:13.585Z,972.30
2017-12-27T11:35:14.997Z,972.24
2017-12-27T11:36:16.419Z,972.31
2017-12-27T11:37:17.841Z,972.26
2017-12-27T11:38:19.262Z,972.28
2017-12-27T11:39:20.673Z,972.25
2017-12-27T11:40:22.085Z,972.25
2017-12-27T11:41:23.505Z,972.26
2017-12-27T11:42:24.918Z,972.23
2017-12-27T11:43:26.336Z,972.23
2017-12-27T11:44:27.749Z,972.17
2017-12-27T11:45:29.159Z,972.21
2017-12-27T11:46:30.572Z,972.24
2017-12-27T11:47:31.981Z,972.20
2017-12-27T11:48:33.704Z,972.18
2017-12-27T11:49:35.119Z,972.18
2017-12-27T11:50:36.538Z,972.16
2017-12-27T11:51:37.961Z,972.15
2017-12-27T11:52:39.377Z,972.21
2017-12-27T11:53:40.792Z,972.17
2017-12-27T11:54:42.203Z,972.15
2017-12-27T11:55:43.617Z,972.16
2017-12-27T11:56:45.036Z,972.15
2017-12-27T11:57:46.452Z,972.15
2017-12-27T11:58:47.874Z,972.18
2017-12-27T11:59:49.359Z,972.11
2017-12-27T12:00:50.730Z,972.13
2017-12-27T12:01:52.157Z,972.14
2017-12-27T12:02:53.580Z,972.14
2017-12-27T12:03:55.005Z,972.11
2017-12-27T12:04:56.427Z,972.19
2017-12-27T12:05:57.844Z,972.16
2017-12-27T12:06:59.254Z,972.14
2017-12-27T12:08:00.680Z,972.16
2017-12-27T12:09:02.102Z,972.15
2017-12-27T12:10:03.519Z,972.13
2017-12-27T12:11:04.934Z,972.16
2017-12-27T12:12:06.345Z,972.22
2017-12-27T12:13:07.765Z,972.18
2017-12-27T12:14:09.191Z,972.19
2017-12-27T12:15:10.606Z,972.25
2017-12-27T12:16:12.026Z,972.15
2017-12-27T12:17:13.498Z,972.15
2017-12-27T12:18:14.909Z,972.14
2017-12-27T12:19:16.327Z,972.14
2017-12-27T12:20:17.739Z,972.12
2017-12-27T12:21:19.161Z,972.13
2017-12-27T12:22:20.584Z,972.08
2017-12-27T12:23:22.013Z,972.10
2017-12-27T12:24:23.742Z,972.16
2017-12-27T12:25:25.166Z,972.15
2017-12-27T12:26:26.586Z,972.10
2017-12-27T12:27:28.023Z,972.12
2017-12-27T12:28:29.439Z,972.06
2017-12-27T12:29:30.897Z,972.07
2017-12-27T12:30:32.319Z,972.07
2017-12-27T12:31:33.732Z,972.07
2017-12-27T12:32:35.142Z,972.11
2017-12-27T12:33:36.592Z,972.17
2017-12-27T12:34:38.101Z,972.14
2017-12-27T12:35:39.516Z,972.12
2017-12-27T12:36:40.937Z,972.10
2017-12-27T12:37:42.357Z,972.07
2017-12-27T12:38:43.773Z,972.05
2017-12-27T12:39:45.191Z,972.05
2017-12-27T12:40:46.613Z,972.03
2017-12-27T12:41:48.064Z,972.02
2017-12-27T12:42:49.483Z,972.00
2017-12-27T12:43:50.913Z,972.00
2017-12-27T12:44:52.335Z,971.95
2017-12-27T12:45:53.750Z,971.94
2017-12-27T12:46:55.189Z,971.91